Time;durP1;ratioP1;P1;durP2;ratioP2;P2;SDS_P1;SDS_P2;PMS_P1;PMS_P2;Temp;Humidity;BMP_temperature;BMP_pressure;BME280_temperature;BME280_humidity;BME280_pressure;Samples;Min_cycle;Max_cycle;Signal;HPM_P1;HPM_P2
2021/03/05 00:00:30;;;;;;;;;;;;;;;17.02;39.54;100259.81;4415866;32;20298;-45
2021/03/05 00:02:56;;;;;;;;;;;;;;;17.00;39.60;100254.50;4417565;32;19938;-47
2021/03/05 00:05:22;;;;;;;;;;;;;;;17.00;39.62;100246.59;4417850;32;20393;-48
2021/03/05 00:07:47;;;;;;;;;;;;;;;16.94;39.85;100258.69;4418557;32;19996;-47
2021/03/05 00:10:13;;;;;;;;;;;;;;;16.90;39.71;100262.97;4418268;32;19958;-50
2021/03/05 00:12:39;;;;;;;;;;;;;;;16.94;39.92;100253.41;4414984;32;19988;-46
2021/03/05 00:15:05;;;;;;;;;;;;;;;16.96;39.73;100252.62;4417092;32;20029;-46
2021/03/05 00:17:31;;;;;;;;;;;;;;;16.96;39.60;100257.87;4415124;32;19998;-50
2021/03/05 00:19:57;;;;;;;;;;;;;;;16.95;39.63;100260.47;4416277;32;19954;-49
2021/03/05 00:22:23;;;;;;;;;;;;;;;16.91;39.80;100274.41;4417386;32;20053;-49
2021/03/05 00:24:48;;;;;;;;;;;;;;;16.92;39.81;100277.06;4417164;32;19977;-46
2021/03/05 00:27:14;;;;;;;;;;;;;;;16.91;39.83;100277.03;4411207;32;20024;-49
2021/03/05 00:29:40;;;;;;;;;;;;;;;16.86;39.78;100288.34;4417080;32;20009;-48
2021/03/05 00:32:06;;;;;;;;;;;;;;;16.91;39.75;100282.28;4418060;32;19962;-48
2021/03/05 00:34:32;;;;;;;;;;;;;;;16.85;39.85;100286.56;4421269;32;19961;-47
2021/03/05 00:36:58;;;;;;;;;;;;;;;16.79;39.97;100275.88;4417273;32;19991;-45
2021/03/05 00:39:24;;;;;;;;;;;;;;;16.80;39.82;100276.75;4417894;32;19962;-48
2021/03/05 00:41:50;;;;;;;;;;;;;;;16.86;39.75;100279.53;4417838;32;19958;-47
2021/03/05 00:44:16;;;;;;;;;;;;;;;16.91;39.63;100279.66;4417888;32;19981;-45
2021/03/05 00:46:42;;;;;;;;;;;;;;;16.90;39.58;100289.28;4417586;32;20005;-49
2021/03/05 00:49:07;;;;;;;;;;;;;;;16.83;39.80;100288.22;4418942;32;21225;-48
2021/03/05 00:51:33;;;;;;;;;;;;;;;16.75;39.87;100292.41;4417816;32;19962;-46
2021/03/05 00:53:59;;;;;;;;;;;;;;;16.80;39.94;100297.81;4417514;32;19995;-49
2021/03/05 00:56:25;;;;;;;;;;;;;;;16.78;39.83;100295.13;4419206;32;19950;-46
2021/03/05 00:58:51;;;;;;;;;;;;;;;16.80;39.84;100303.06;4416941;32;19972;-50
2021/03/05 01:01:17;;;;;;;;;;;;;;;16.75;40.01;100297.69;4423296;32;19962;-47
2021/03/05 01:03:43;;;;;;;;;;;;;;;16.72;39.87;100294.94;4416899;32;20346;-49
2021/03/05 01:06:09;;;;;;;;;;;;;;;16.77;39.88;100298.59;4419546;32;19969;-45
2021/03/05 01:08:35;;;;;;;;;;;;;;;16.77;39.79;100301.25;4416238;32;19968;-46
2021/03/05 01:11:01;;;;;;;;;;;;;;;16.72;39.97;100302.84;4419294;32;20005;-45
2021/03/05 01:13:26;;;;;;;;;;;;;;;16.71;40.04;100304.59;4418206;32;20393;-45
2021/03/05 01:15:52;;;;;;;;;;;;;;;16.72;40.00;100314.25;4421517;32;19969;-45
2021/03/05 01:18:18;;;;;;;;;;;;;;;16.69;39.96;100313.28;4417741;32;19987;-50
2021/03/05 01:20:44;;;;;;;;;;;;;;;16.65;39.96;100314.06;4421898;32;19974;-45
2021/03/05 01:23:10;;;;;;;;;;;;;;;16.68;40.00;100319.41;4417977;32;20307;-45
2021/03/05 01:25:36;;;;;;;;;;;;;;;16.69;39.80;100310.66;4419529;32;19974;-47
2021/03/05 01:28:02;;;;;;;;;;;;;;;16.64;40.04;100309.66;4426277;32;20005;-48
2021/03/05 01:30:28;;;;;;;;;;;;;;;16.73;39.75;100307.28;4419545;32;19961;-46
2021/03/05 01:32:54;;;;;;;;;;;;;;;16.74;39.87;100306.44;4420201;32;20807;-47
2021/03/05 01:35:19;;;;;;;;;;;;;;;16.70;39.93;100307.16;4416706;32;19959;-44
2021/03/05 01:37:45;;;;;;;;;;;;;;;16.75;39.74;100304.66;4416797;32;19958;-46
2021/03/05 01:40:11;;;;;;;;;;;;;;;16.78;39.65;100304.75;4417919;32;19968;-47
2021/03/05 01:42:37;;;;;;;;;;;;;;;16.72;39.80;100305.47;4420463;32;19958;-49
2021/03/05 01:45:03;;;;;;;;;;;;;;;16.67;39.93;100317.63;4422603;32;19957;-47
2021/03/05 01:47:29;;;;;;;;;;;;;;;16.65;39.96;100320.19;4415926;32;20003;-51
2021/03/05 01:49:55;;;;;;;;;;;;;;;16.69;39.96;100321.16;4416955;32;19981;-47
2021/03/05 01:52:21;;;;;;;;;;;;;;;16.78;39.59;100321.41;4418557;32;19964;-48
2021/03/05 01:54:46;;;;;;;;;;;;;;;16.69;39.87;100321.16;4416919;32;20426;-50
2021/03/05 01:57:12;;;;;;;;;;;;;;;16.71;39.71;100324.72;4418203;32;20001;-46
2021/03/05 01:59:38;;;;;;;;;;;;;;;16.72;39.66;100306.38;4417111;32;19970;-47
2021/03/05 02:02:04;;;;;;;;;;;;;;;16.63;39.89;100311.37;4421015;32;20295;-45
2021/03/05 02:04:30;;;;;;;;;;;;;;;16.63;39.90;100315.75;4425234;32;19969;-46
2021/03/05 02:06:56;;;;;;;;;;;;;;;16.57;39.96;100312.09;4418270;32;19958;-47
2021/03/05 02:09:22;;;;;;;;;;;;;;;16.58;39.98;100313.88;4416718;32;19990;-50
2021/03/05 02:11:47;;;;;;;;;;;;;;;16.54;40.02;100317.28;4416842;32;19981;-50
2021/03/05 02:14:13;;;;;;;;;;;;;;;16.53;40.10;100320.75;4416205;32;19980;-48
2021/03/05 02:16:39;;;;;;;;;;;;;;;16.60;39.93;100316.56;4418749;32;19997;-46
2021/03/05 02:19:05;;;;;;;;;;;;;;;16.52;40.10;100312.81;4416584;32;20045;-48
2021/03/05 02:21:31;;;;;;;;;;;;;;;16.50;40.19;100311.91;4421276;32;19984;-50
2021/03/05 02:23:57;;;;;;;;;;;;;;;16.55;39.99;100319.06;4423977;32;19988;-46
2021/03/05 02:26:23;;;;;;;;;;;;;;;16.55;39.95;100313.81;4421409;32;20045;-45
2021/03/05 02:28:49;;;;;;;;;;;;;;;16.45;40.12;100317.03;4415732;32;19966;-50
2021/03/05 02:31:15;;;;;;;;;;;;;;;16.53;39.91;100315.50;4421762;32;19961;-45
2021/03/05 02:33:41;;;;;;;;;;;;;;;16.48;40.12;100317.09;4426198;32;19980;-46
2021/03/05 02:36:07;;;;;;;;;;;;;;;16.49;40.14;100321.53;4413453;32;20361;-48
2021/03/05 02:38:33;;;;;;;;;;;;;;;16.49;40.00;100318.00;4420915;32;20011;-46
2021/03/05 02:40:59;;;;;;;;;;;;;;;16.47;40.06;100319.72;4421935;32;19950;-46
2021/03/05 02:43:24;;;;;;;;;;;;;;;16.47;40.11;100323.22;4427311;32;19973;-48
2021/03/05 02:45:50;;;;;;;;;;;;;;;16.47;40.04;100324.97;4426001;32;19962;-48
2021/03/05 02:48:16;;;;;;;;;;;;;;;16.51;40.06;100332.06;4424236;32;19965;-45
2021/03/05 02:50:42;;;;;;;;;;;;;;;16.43;40.30;100329.25;4427325;32;20025;-47
2021/03/05 02:53:08;;;;;;;;;;;;;;;16.43;40.20;100329.25;4423956;32;20373;-50
2021/03/05 02:55:34;;;;;;;;;;;;;;;16.44;40.16;100331.03;4422891;32;20016;-47
2021/03/05 02:58:00;;;;;;;;;;;;;;;16.48;40.11;100326.75;4426681;32;19984;-50
2021/03/05 03:00:25;;;;;;;;;;;;;;;16.54;39.99;100327.81;4423469;32;20115;-49
2021/03/05 03:02:51;;;;;;;;;;;;;;;16.48;40.01;100332.88;4427314;32;20007;-48
2021/03/05 03:05:17;;;;;;;;;;;;;;;16.49;40.04;100329.44;4429767;32;19938;-51
2021/03/05 03:07:43;;;;;;;;;;;;;;;16.51;40.14;100326.81;4420566;32;20402;-47
2021/03/05 03:10:09;;;;;;;;;;;;;;;16.56;39.85;100330.47;4426492;32;19969;-48
2021/03/05 03:12:35;;;;;;;;;;;;;;;16.61;39.81;100325.34;4424690;32;19953;-44
2021/03/05 03:15:01;;;;;;;;;;;;;;;16.54;39.86;100327.81;4424090;32;20048;-51
2021/03/05 03:17:27;;;;;;;;;;;;;;;16.46;40.01;100329.31;4401491;32;19967;-49
2021/03/05 03:19:53;;;;;;;;;;;;;;;16.54;39.85;100330.44;4410601;32;19946;-46
2021/03/05 03:22:19;;;;;;;;;;;;;;;16.58;39.92;100334.91;4406194;32;20040;-46
2021/03/05 03:24:44;;;;;;;;;;;;;;;16.57;39.84;100335.75;4403032;32;19958;-45
2021/03/05 03:27:10;;;;;;;;;;;;;;;16.63;39.73;100336.81;4403306;32;20005;-46
2021/03/05 03:29:36;;;;;;;;;;;;;;;16.53;39.87;100336.53;4405760;32;19959;-45
2021/03/05 03:32:02;;;;;;;;;;;;;;;16.49;39.86;100342.56;4405846;32;20725;-49
2021/03/05 03:34:28;;;;;;;;;;;;;;;16.47;40.04;100341.59;4411006;32;20525;-45
2021/03/05 03:36:54;;;;;;;;;;;;;;;16.55;39.83;100350.59;4415319;32;20005;-51
2021/03/05 03:39:20;;;;;;;;;;;;;;;16.63;39.64;100349.94;4417691;32;19995;-47
2021/03/05 03:41:46;;;;;;;;;;;;;;;16.52;39.88;100353.16;4411477;32;19958;-45
2021/03/05 03:44:11;;;;;;;;;;;;;;;16.54;39.78;100354.09;4410839;32;20058;-46
2021/03/05 03:46:38;;;;;;;;;;;;;;;16.56;39.70;100348.87;4406794;32;19976;-47
2021/03/05 03:49:03;;;;;;;;;;;;;;;16.54;39.72;100359.34;4414781;32;20276;-48
2021/03/05 03:51:29;;;;;;;;;;;;;;;16.56;39.68;100368.16;4416213;32;19968;-49
2021/03/05 03:53:55;;;;;;;;;;;;;;;16.57;39.63;100364.69;4414665;32;20016;-46
2021/03/05 03:56:21;;;;;;;;;;;;;;;16.64;39.52;100370.13;4414261;32;19953;-45
2021/03/05 03:58:47;;;;;;;;;;;;;;;16.63;39.51;100368.34;4411242;32;20304;-49
2021/03/05 04:01:13;;;;;;;;;;;;;;;16.62;39.56;100367.44;4427668;32;19981;-47
2021/03/05 04:03:39;;;;;;;;;;;;;;;16.59;39.58;100372.63;4413937;32;19954;-51
2021/03/05 04:06:05;;;;;;;;;;;;;;;16.61;39.49;100375.31;4414757;32;20033;-49
2021/03/05 04:08:31;;;;;;;;;;;;;;;16.42;39.89;100380.03;4415814;32;19993;-45
2021/03/05 04:10:56;;;;;;;;;;;;;;;16.40;39.94;100379.09;4416409;32;20349;-48
2021/03/05 04:13:22;;;;;;;;;;;;;;;16.41;39.92;100380.88;4419735;32;19985;-45
2021/03/05 04:15:48;;;;;;;;;;;;;;;16.38;39.90;100379.03;4415975;32;20278;-53
2021/03/05 04:18:14;;;;;;;;;;;;;;;16.37;39.97;100386.91;4418797;32;20004;-46
2021/03/05 04:20:40;;;;;;;;;;;;;;;16.39;39.95;100390.47;4427414;32;19958;-52
2021/03/05 04:23:06;;;;;;;;;;;;;;;16.35;39.95;100389.47;4420811;32;19954;-45
2021/03/05 04:25:32;;;;;;;;;;;;;;;16.50;39.66;100399.56;4416648;32;20289;-48
2021/03/05 04:27:58;;;;;;;;;;;;;;;16.48;39.65;100389.81;4416819;32;19997;-47
2021/03/05 04:30:24;;;;;;;;;;;;;;;16.49;39.57;100392.50;4427058;32;19949;-47
2021/03/05 04:32:50;;;;;;;;;;;;;;;16.44;39.73;100402.87;4415457;32;19962;-48
2021/03/05 04:35:15;;;;;;;;;;;;;;;16.41;39.85;100399.28;4414607;32;20334;-47
2021/03/05 04:37:41;;;;;;;;;;;;;;;16.40;39.71;100408.88;4415960;32;19993;-48
2021/03/05 04:40:07;;;;;;;;;;;;;;;16.41;39.75;100399.28;4414813;32;19958;-48
2021/03/05 04:42:33;;;;;;;;;;;;;;;16.28;40.02;100409.44;4416413;32;19958;-51
2021/03/05 04:44:59;;;;;;;;;;;;;;;16.28;40.00;100404.19;4417037;32;19995;-51
2021/03/05 04:47:25;;;;;;;;;;;;;;;16.31;39.94;100413.91;4414122;32;20616;-49
2021/03/05 04:49:51;;;;;;;;;;;;;;;16.24;40.06;100417.16;4414706;32;19993;-51
2021/03/05 04:52:17;;;;;;;;;;;;;;;16.23;40.14;100416.25;4414869;32;19995;-45
2021/03/05 04:54:42;;;;;;;;;;;;;;;16.28;39.92;100422.56;4417399;32;20278;-48
2021/03/05 04:57:08;;;;;;;;;;;;;;;16.24;40.07;100427.69;4415246;32;19976;-47
2021/03/05 04:59:34;;;;;;;;;;;;;;;16.20;40.15;100431.06;4418126;32;20328;-47
2021/03/05 05:02:00;;;;;;;;;;;;;;;16.14;40.20;100432.66;4415212;32;19959;-47
2021/03/05 05:04:26;;;;;;;;;;;;;;;16.13;40.26;100440.50;4415540;32;19974;-51
2021/03/05 05:06:52;;;;;;;;;;;;;;;16.18;40.11;100444.16;4412002;32;20016;-48
2021/03/05 05:09:18;;;;;;;;;;;;;;;16.20;40.04;100437.19;4414351;32;19980;-44
2021/03/05 05:11:44;;;;;;;;;;;;;;;16.07;40.34;100440.28;4416047;32;19997;-47
2021/03/05 05:14:10;;;;;;;;;;;;;;;16.14;40.20;100444.91;4424904;32;20019;-48
2021/03/05 05:16:35;;;;;;;;;;;;;;;16.23;40.00;100441.66;4406531;32;19962;-48
2021/03/05 05:19:01;;;;;;;;;;;;;;;16.15;40.10;100442.31;4420371;32;19967;-45
2021/03/05 05:21:27;;;;;;;;;;;;;;;16.11;40.22;100437.81;4417926;32;20041;-48
2021/03/05 05:23:53;;;;;;;;;;;;;;;16.05;40.41;100453.41;4419848;32;20364;-47
2021/03/05 05:26:19;;;;;;;;;;;;;;;16.11;40.23;100444.78;4418673;32;19964;-48
2021/03/05 05:28:45;;;;;;;;;;;;;;;16.24;39.92;100454.88;4420853;32;19954;-48
2021/03/05 05:31:11;;;;;;;;;;;;;;;16.21;39.97;100444.22;4422521;32;20267;-45
2021/03/05 05:33:37;;;;;;;;;;;;;;;16.13;40.10;100454.50;4418867;32;19993;-47
2021/03/05 05:36:03;;;;;;;;;;;;;;;16.01;40.39;100455.03;4418443;32;19977;-48
2021/03/05 05:38:29;;;;;;;;;;;;;;;16.17;39.99;100450.25;4420351;32;19974;-45
2021/03/05 05:40:55;;;;;;;;;;;;;;;16.19;39.99;100456.44;4418982;32;19970;-46
2021/03/05 05:43:21;;;;;;;;;;;;;;;16.17;39.98;100458.13;4416326;32;20003;-48
2021/03/05 05:45:46;;;;;;;;;;;;;;;16.18;39.93;100452.03;4418385;32;19954;-46
2021/03/05 05:48:12;;;;;;;;;;;;;;;16.16;39.94;100456.34;4418421;32;20024;-47
2021/03/05 05:50:38;;;;;;;;;;;;;;;16.13;40.06;100461.53;4416808;32;19958;-45
2021/03/05 05:53:04;;;;;;;;;;;;;;;16.25;39.76;100461.91;4417155;32;19970;-51
2021/03/05 05:55:30;;;;;;;;;;;;;;;16.18;39.85;100453.78;4417492;32;20657;-50
2021/03/05 05:57:56;;;;;;;;;;;;;;;16.14;39.92;100463.31;4416316;32;19991;-45
2021/03/05 06:00:22;;;;;;;;;;;;;;;16.12;39.96;100460.63;4419642;32;20041;-48
2021/03/05 06:02:48;;;;;;;;;;;;;;;16.18;39.82;100465.16;4418488;32;19968;-47
2021/03/05 06:05:14;;;;;;;;;;;;;;;16.25;39.66;100469.78;4420108;32;20032;-45
2021/03/05 06:07:39;;;;;;;;;;;;;;;16.19;39.77;100472.22;4415145;32;20003;-46
2021/03/05 06:10:05;;;;;;;;;;;;;;;16.26;39.61;100481.16;4417268;32;19966;-49
2021/03/05 06:12:31;;;;;;;;;;;;;;;16.11;39.89;100489.44;4415562;32;19966;-45
2021/03/05 06:14:57;;;;;;;;;;;;;;;16.13;39.85;100493.06;4418315;32;19957;-47
2021/03/05 06:17:23;;;;;;;;;;;;;;;16.07;39.96;100490.22;4416573;32;20029;-47
2021/03/05 06:19:49;;;;;;;;;;;;;;;16.11;39.89;100489.44;4418752;32;19942;-47
2021/03/05 06:22:15;;;;;;;;;;;;;;;16.10;39.93;100492.94;4416865;32;21318;-45
2021/03/05 06:24:41;;;;;;;;;;;;;;;16.08;39.96;100492.00;4417115;32;19961;-45
2021/03/05 06:27:07;;;;;;;;;;;;;;;16.04;40.03;100490.12;4417410;32;20028;-47
2021/03/05 06:29:33;;;;;;;;;;;;;;;16.02;40.07;100496.22;4415379;32;19958;-47
2021/03/05 06:31:58;;;;;;;;;;;;;;;15.99;40.10;100498.75;4418159;32;20355;-48
2021/03/05 06:34:24;;;;;;;;;;;;;;;16.06;39.94;100501.56;4417267;32;19973;-48
2021/03/05 06:36:50;;;;;;;;;;;;;;;16.02;40.04;100506.72;4421159;32;19964;-47
2021/03/05 06:39:16;;;;;;;;;;;;;;;16.05;39.95;100507.66;4429792;32;19968;-46
2021/03/05 06:41:42;;;;;;;;;;;;;;;16.06;39.94;100512.06;4420531;32;19988;-46
2021/03/05 06:44:08;;;;;;;;;;;;;;;15.95;40.17;100525.75;4416605;32;19950;-45
2021/03/05 06:46:34;;;;;;;;;;;;;;;15.97;40.15;100531.06;4423424;32;19958;-49
2021/03/05 06:49:00;;;;;;;;;;;;;;;15.96;40.14;100532.78;4411202;32;20048;-48
2021/03/05 06:51:26;;;;;;;;;;;;;;;15.92;40.23;100532.63;4405007;32;19951;-50
2021/03/05 06:53:52;;;;;;;;;;;;;;;15.89;40.32;100536.03;4399207;32;20028;-48
2021/03/05 06:56:18;;;;;;;;;;;;;;;15.90;40.30;100543.09;4423001;32;19949;-48
2021/03/05 06:58:44;;;;;;;;;;;;;;;15.93;40.23;100543.19;4421609;32;19985;-48
2021/03/05 07:01:09;;;;;;;;;;;;;;;15.99;40.07;100543.41;4413070;32;19950;-47
2021/03/05 07:03:36;;;;;;;;;;;;;;;15.97;40.10;100546.81;4411447;32;19962;-49
2021/03/05 07:06:02;;;;;;;;;;;;;;;15.88;40.29;100552.63;4416529;32;19954;-45
2021/03/05 07:08:27;;;;;;;;;;;;;;;15.93;40.20;100553.69;4417462;32;19950;-45
2021/03/05 07:10:53;;;;;;;;;;;;;;;15.98;40.04;100562.59;4418036;32;20024;-46
2021/03/05 07:13:19;;;;;;;;;;;;;;;15.96;40.11;100563.41;4421097;32;20065;-45
2021/03/05 07:15:45;;;;;;;;;;;;;;;15.88;40.28;100566.63;4419733;32;19988;-49
2021/03/05 07:18:11;;;;;;;;;;;;;;;15.96;40.12;100569.56;4422650;32;19976;-49
2021/03/05 07:20:37;;;;;;;;;;;;;;;15.94;40.14;100584.38;4420475;32;19976;-49
2021/03/05 07:23:03;;;;;;;;;;;;;;;15.90;40.28;100586.84;4416194;32;20327;-46
2021/03/05 07:25:29;;;;;;;;;;;;;;;15.94;40.13;100592.25;4420512;32;20082;-48
2021/03/05 07:27:55;;;;;;;;;;;;;;;16.00;40.01;100600.34;4414765;32;20313;-50
2021/03/05 07:30:22;;;;;;;;;;;;;;;16.06;39.88;100597.03;4419303;32;19954;-51
2021/03/05 07:32:48;;;;;;;;;;;;;;;16.07;39.85;100598.81;4416772;32;20041;-47
2021/03/05 07:35:15;;;;;;;;;;;;;;;16.01;39.96;100599.50;4418513;32;19990;-48
2021/03/05 07:37:40;;;;;;;;;;;;;;;16.05;39.92;100602.22;4420488;32;19955;-49
2021/03/05 07:40:06;;;;;;;;;;;;;;;16.07;39.86;100604.09;4417374;32;19950;-49
2021/03/05 07:42:32;;;;;;;;;;;;;;;16.07;39.84;100598.81;4418493;32;19961;-45
2021/03/05 07:44:58;;;;;;;;;;;;;;;16.08;39.87;100604.97;4412972;32;19973;-46
2021/03/05 07:47:27;;;;;;;;;;;;;;;16.00;39.97;100608.25;4418751;32;19977;-48
2021/03/05 07:49:53;;;;;;;;;;;;;;;16.07;39.84;100606.72;4418242;32;19987;-50
2021/03/05 07:52:19;;;;;;;;;;;;;;;16.10;39.77;100611.16;4413612;32;19955;-47
2021/03/05 07:54:45;;;;;;;;;;;;;;;16.12;39.73;100618.25;4421478;32;19958;-45
2021/03/05 07:57:11;;;;;;;;;;;;;;;16.00;39.98;100618.75;4418957;32;19961;-51
2021/03/05 07:59:37;;;;;;;;;;;;;;;16.08;39.84;100613.75;4416035;32;19942;-47
2021/03/05 08:02:03;;;;;;;;;;;;;;;16.02;39.96;100617.06;4419905;32;20009;-45
2021/03/05 08:04:29;;;;;;;;;;;;;;;16.08;39.88;100623.34;4416763;32;19997;-48
2021/03/05 08:06:54;;;;;;;;;;;;;;;16.08;39.87;100623.34;4414120;32;20321;-44
2021/03/05 08:09:20;;;;;;;;;;;;;;;16.07;39.92;100624.19;4414969;32;19981;-51
2021/03/05 08:11:46;;;;;;;;;;;;;;;15.98;40.12;100630.03;4414679;32;19999;-50
2021/03/05 08:14:12;;;;;;;;;;;;;;;15.93;40.24;100643.00;4417110;32;19993;-46
2021/03/05 08:16:38;;;;;;;;;;;;;;;16.11;39.86;100644.47;4418581;32;19954;-50
2021/03/05 08:19:04;;;;;;;;;;;;;;;16.12;39.82;100649.78;4415602;32;19962;-46
2021/03/05 08:21:30;;;;;;;;;;;;;;;16.12;39.82;100644.53;4410983;32;20739;-47
2021/03/05 08:23:56;;;;;;;;;;;;;;;16.14;39.79;100641.97;4419220;32;20338;-48
2021/03/05 08:26:22;;;;;;;;;;;;;;;16.14;39.82;100647.22;4409318;32;20036;-47
2021/03/05 08:28:49;;;;;;;;;;;;;;;16.23;39.64;100650.13;4414965;32;20003;-49
2021/03/05 08:31:15;;;;;;;;;;;;;;;16.19;39.73;100658.75;4410872;32;20323;-45
2021/03/05 08:33:41;;;;;;;;;;;;;;;16.12;39.86;100662.91;4417186;32;20002;-50
2021/03/05 08:36:07;;;;;;;;;;;;;;;16.15;39.83;100656.88;4420784;32;20710;-45
2021/03/05 08:38:34;;;;;;;;;;;;;;;16.23;39.67;100662.41;4405485;32;19973;-50
2021/03/05 08:41:04;;;;;;;;;;;;;;;16.25;39.62;100660.72;4398627;32;19992;-48
2021/03/05 08:43:31;;;;;;;;;;;;;;;16.24;39.64;100665.09;4400713;32;20725;-50
2021/03/05 08:45:59;;;;;;;;;;;;;;;16.25;39.65;100659.00;4406899;32;19981;-47
2021/03/05 08:48:25;;;;;;;;;;;;;;;16.32;39.50;100667.06;4400456;32;19969;-44
2021/03/05 08:50:51;;;;;;;;;;;;;;;16.28;39.61;100672.22;4402027;32;19981;-49
2021/03/05 08:53:17;;;;;;;;;;;;;;;16.30;39.59;100670.53;4402676;32;19977;-48
2021/03/05 08:55:44;;;;;;;;;;;;;;;16.39;39.40;100662.06;4411014;32;19976;-49
2021/03/05 08:58:10;;;;;;;;;;;;;;;16.40;39.36;100676.12;4415229;32;20426;-50
2021/03/05 09:00:36;;;;;;;;;;;;;;;16.43;39.34;100676.22;4430023;32;19996;-50
2021/03/05 09:03:02;;;;;;;;;;;;;;;16.50;39.19;100678.22;4416147;32;20023;-50
2021/03/05 09:05:32;;;;;;;;;;;;;;;16.41;39.35;100672.62;4409877;32;19982;-45
2021/03/05 09:07:58;;;;;;;;;;;;;;;16.45;39.31;100679.78;4412648;32;19958;-49
2021/03/05 09:10:24;;;;;;;;;;;;;;;16.45;39.35;100685.03;4425083;32;19951;-50
2021/03/05 09:12:50;;;;;;;;;;;;;;;16.47;39.29;100679.84;4415672;32;19969;-51
2021/03/05 09:15:16;;;;;;;;;;;;;;;16.50;39.22;100687.81;4414367;32;19997;-48
2021/03/05 09:17:42;;;;;;;;;;;;;;;16.49;39.29;100692.19;4407578;32;20075;-45
2021/03/05 09:20:08;;;;;;;;;;;;;;;16.55;39.17;100696.78;4413550;32;19958;-49
2021/03/05 09:22:34;;;;;;;;;;;;;;;16.53;39.18;100701.97;4421151;32;19957;-45
2021/03/05 09:25:00;;;;;;;;;;;;;;;16.55;39.22;100691.53;4412411;32;20282;-46
2021/03/05 09:27:26;;;;;;;;;;;;;;;16.57;39.15;100701.22;4412885;32;19989;-48
2021/03/05 09:29:52;;;;;;;;;;;;;;;16.65;39.04;100703.22;4405728;32;19974;-49
2021/03/05 09:32:17;;;;;;;;;;;;;;;16.64;39.14;100701.44;4414435;32;19950;-47
2021/03/05 09:34:43;;;;;;;;;;;;;;;16.65;39.05;100703.22;4415177;32;19957;-50
2021/03/05 09:37:09;;;;;;;;;;;;;;;16.65;39.11;100709.34;4413928;32;20009;-47
2021/03/05 09:39:35;;;;;;;;;;;;;;;16.65;39.12;100705.84;4412806;32;20443;-48
2021/03/05 09:42:01;;;;;;;;;;;;;;;16.67;39.15;100717.31;4413919;32;20037;-51
2021/03/05 09:44:27;;;;;;;;;;;;;;;16.70;38.98;100714.78;4404955;32;20351;-46
2021/03/05 09:46:53;;;;;;;;;;;;;;;16.72;39.05;100720.97;4414220;32;19994;-46
2021/03/05 09:49:19;;;;;;;;;;;;;;;16.70;39.03;100726.19;4410304;32;20037;-48
2021/03/05 09:51:44;;;;;;;;;;;;;;;16.75;38.95;100729.00;4424290;32;20537;-47
2021/03/05 09:54:10;;;;;;;;;;;;;;;16.78;38.94;100729.06;4416067;32;19972;-49
2021/03/05 09:56:36;;;;;;;;;;;;;;;16.78;38.90;100726.44;4419372;32;19968;-51
2021/03/05 09:59:02;;;;;;;;;;;;;;;16.82;38.83;100741.47;4415516;32;20017;-46
2021/03/05 10:01:28;;;;;;;;;;;;;;;16.92;38.66;100744.41;4414098;32;19954;-52
2021/03/05 10:03:54;;;;;;;;;;;;;;;16.91;38.62;100753.16;4417540;32;20359;-48
2021/03/05 10:06:20;;;;;;;;;;;;;;;16.91;38.76;100753.16;4413812;32;19973;-46
2021/03/05 10:08:46;;;;;;;;;;;;;;;16.93;38.67;100757.62;4417120;32;19965;-49
2021/03/05 10:11:12;;;;;;;;;;;;;;;16.94;38.64;100754.16;4416881;32;20031;-48
2021/03/05 10:13:38;;;;;;;;;;;;;;;16.98;38.57;100763.06;4414944;32;20006;-45
2021/03/05 10:16:04;;;;;;;;;;;;;;;17.05;38.45;100765.06;4415119;32;19982;-49
2021/03/05 10:18:29;;;;;;;;;;;;;;;17.09;38.36;100766.03;4413869;32;20347;-50
2021/03/05 10:20:56;;;;;;;;;;;;;;;17.11;38.29;100773.16;4416910;32;19993;-49
2021/03/05 10:23:21;;;;;;;;;;;;;;;17.07;38.32;100780.91;4416787;32;19984;-48
2021/03/05 10:25:47;;;;;;;;;;;;;;;17.07;38.44;100771.25;4426338;32;19966;-52
2021/03/05 10:28:13;;;;;;;;;;;;;;;17.12;38.30;100767.03;4397644;32;19957;-48
2021/03/05 10:30:39;;;;;;;;;;;;;;;17.18;38.17;100773.34;4428887;32;19958;-46
2021/03/05 10:33:05;;;;;;;;;;;;;;;17.20;38.20;100782.16;4426695;32;20012;-48
2021/03/05 10:35:31;;;;;;;;;;;;;;;17.22;38.09;100780.47;4425178;32;19980;-49
2021/03/05 10:37:57;;;;;;;;;;;;;;;17.24;38.09;100778.81;4426353;32;19991;-46
2021/03/05 10:40:23;;;;;;;;;;;;;;;17.25;38.00;100785.87;4423561;32;20048;-46
2021/03/05 10:42:50;;;;;;;;;;;;;;;17.29;37.92;100787.75;4427644;32;19998;-50
2021/03/05 10:45:16;;;;;;;;;;;;;;;17.31;37.84;100786.03;4424670;32;20013;-45
2021/03/05 10:47:42;;;;;;;;;;;;;;;17.32;37.84;100782.56;4427484;32;20340;-52
2021/03/05 10:50:07;;;;;;;;;;;;;;;17.30;37.89;100788.66;4423138;32;19968;-46
2021/03/05 10:52:33;;;;;;;;;;;;;;;17.22;38.19;100796.28;4422313;32;20006;-50
2021/03/05 10:54:59;;;;;;;;;;;;;;;17.17;38.21;100789.97;4421035;32;19954;-54
2021/03/05 10:57:25;;;;;;;;;;;;;;;17.26;38.13;100792.91;4423745;32;19965;-47
2021/03/05 10:59:51;;;;;;;;;;;;;;;17.30;38.07;100786.00;4423677;32;19973;-49
2021/03/05 11:02:17;;;;;;;;;;;;;;;17.33;38.06;100789.59;4429470;32;19958;-46
2021/03/05 11:04:43;;;;;;;;;;;;;;;17.35;37.98;100787.94;4424605;32;20001;-47
2021/03/05 11:07:09;;;;;;;;;;;;;;;17.40;38.04;100793.31;4411707;32;19976;-44
2021/03/05 11:09:35;;;;;;;;;;;;;;;17.38;37.94;100795.94;4426108;32;19957;-52
2021/03/05 11:12:01;;;;;;;;;;;;;;;17.39;37.84;100800.34;4420758;32;20347;-51
2021/03/05 11:14:26;;;;;;;;;;;;;;;17.42;37.91;100800.44;4422528;32;19955;-45
2021/03/05 11:16:53;;;;;;;;;;;;;;;17.43;37.88;100790.81;4420685;32;20020;-46
2021/03/05 11:19:19;;;;;;;;;;;;;;;17.46;37.80;100790.00;4428296;32;20379;-45
2021/03/05 11:21:45;;;;;;;;;;;;;;;17.49;37.77;100798.00;4425507;32;20014;-44
2021/03/05 11:24:11;;;;;;;;;;;;;;;17.48;37.65;100794.47;4428709;32;20003;-49
2021/03/05 11:26:37;;;;;;;;;;;;;;;17.52;37.66;100795.47;4426353;32;19993;-46
2021/03/05 11:29:03;;;;;;;;;;;;;;;17.53;37.63;100794.62;4429346;32;19984;-44
2021/03/05 11:31:29;;;;;;;;;;;;;;;17.52;37.62;100795.47;4429224;32;19999;-47
2021/03/05 11:33:55;;;;;;;;;;;;;;;17.53;37.63;100807.78;4427481;32;19992;-44
2021/03/05 11:36:21;;;;;;;;;;;;;;;17.54;37.63;100804.31;4424352;32;19985;-45
2021/03/05 11:38:46;;;;;;;;;;;;;;;17.54;37.63;100805.22;4426419;32;20294;-48
2021/03/05 11:41:12;;;;;;;;;;;;;;;17.55;37.64;100800.81;4423093;32;20317;-46
2021/03/05 11:43:38;;;;;;;;;;;;;;;17.56;37.58;100813.13;4425652;32;19976;-48
2021/03/05 11:46:04;;;;;;;;;;;;;;;17.59;37.50;100817.63;4424187;32;19946;-51
2021/03/05 11:48:30;;;;;;;;;;;;;;;17.56;37.59;100815.78;4426610;32;20009;-45
2021/03/05 11:50:56;;;;;;;;;;;;;;;17.60;37.52;100819.41;4421991;32;19968;-45
2021/03/05 11:53:22;;;;;;;;;;;;;;;17.60;37.51;100804.50;4424825;32;19995;-47
2021/03/05 11:55:48;;;;;;;;;;;;;;;17.59;37.40;100801.81;4430594;32;19950;-45
2021/03/05 11:58:14;;;;;;;;;;;;;;;17.58;37.34;100806.16;4425187;32;19958;-49
2021/03/05 12:00:40;;;;;;;;;;;;;;;17.48;37.35;100810.28;4427787;32;19942;-46
2021/03/05 12:03:05;;;;;;;;;;;;;;;17.48;37.47;100806.75;4425962;32;20664;-48
2021/03/05 12:05:31;;;;;;;;;;;;;;;17.45;37.40;100806.63;4427253;32;19973;-48
2021/03/05 12:07:57;;;;;;;;;;;;;;;17.43;37.13;100806.63;4422698;32;19965;-47
2021/03/05 12:10:24;;;;;;;;;;;;;;;17.46;37.24;100806.69;4420212;32;19992;-50
2021/03/05 12:12:49;;;;;;;;;;;;;;;17.55;37.21;100811.34;4424780;32;20017;-44
2021/03/05 12:15:15;;;;;;;;;;;;;;;17.52;37.20;100806.00;4424283;32;19991;-44
2021/03/05 12:17:41;;;;;;;;;;;;;;;17.48;37.33;100805.00;4418020;32;19977;-44
2021/03/05 12:20:07;;;;;;;;;;;;;;;17.55;37.30;100806.09;4407259;32;19962;-44
2021/03/05 12:22:33;;;;;;;;;;;;;;;17.55;37.06;100793.81;4402900;32;19954;-48
2021/03/05 12:24:59;;;;;;;;;;;;;;;17.49;37.29;100798.00;4401630;32;20287;-48
2021/03/05 12:27:25;;;;;;;;;;;;;;;17.54;37.15;100799.03;4402882;32;19992;-49